createdAt,value
2022-12-25T00:01:11.545Z,100865.59
2022-12-25T00:03:40.917Z,100875.19
2022-12-25T00:06:11.812Z,100860.84
2022-12-25T00:08:41.521Z,100857.44
2022-12-25T00:11:14.119Z,100860.84
2022-12-25T00:13:43.556Z,100792.09
2022-12-25T00:16:16.848Z,100853.75
2022-12-25T00:18:45.869Z,100772.31
2022-12-25T00:21:17.369Z,100858.16
2022-12-25T00:23:46.025Z,100849.53
2022-12-25T00:26:16.646Z,100854.88
2022-12-25T00:28:45.654Z,100779.47
2022-12-25T00:31:16.989Z,100858.16
2022-12-25T00:33:48.388Z,100860.84
2022-12-25T00:36:21.363Z,100854.59
2022-12-25T00:38:50.445Z,100850.94
2022-12-25T00:41:41.781Z,100852.78
2022-12-25T00:44:12.907Z,100853.75
2022-12-25T00:46:42.285Z,100855.47
2022-12-25T00:49:11.571Z,100773.25
2022-12-25T00:51:42.147Z,100863.50
2022-12-25T00:54:11.412Z,100859.13
2022-12-25T00:56:40.480Z,100876.91
2022-12-25T00:59:09.468Z,100866.19
2022-12-25T01:01:38.281Z,100857.16
2022-12-25T01:04:09.104Z,100851.78
2022-12-25T01:06:37.800Z,100853.47
2022-12-25T01:09:25.370Z,100817.56
2022-12-25T01:11:54.160Z,100846.44
2022-12-25T01:14:22.758Z,100854.59
2022-12-25T01:16:51.765Z,100850.09
2022-12-25T01:19:20.723Z,100862.53
2022-12-25T01:21:49.750Z,100852.66
2022-12-25T01:24:19.715Z,100853.47
2022-12-25T01:26:48.738Z,100844.16
2022-12-25T01:29:17.519Z,100857.16
2022-12-25T01:31:46.159Z,100855.47
2022-12-25T01:34:15.231Z,100851.78
2022-12-25T01:36:44.370Z,100847.44
2022-12-25T01:39:13.288Z,100866.19
2022-12-25T01:41:44.010Z,100860.84
2022-12-25T01:44:54.116Z,100853.75
2022-12-25T01:47:23.135Z,100870.56
2022-12-25T01:49:52.548Z,100863.38
2022-12-25T01:52:25.608Z,100878.59
2022-12-25T01:54:58.026Z,100791.75
2022-12-25T01:57:31.474Z,100880.28
2022-12-25T02:00:01.913Z,100893.00
2022-12-25T02:02:31.306Z,100892.75
2022-12-25T02:05:05.282Z,100891.03
2022-12-25T02:07:36.815Z,100878.59
2022-12-25T02:10:05.692Z,100889.34
2022-12-25T02:12:37.470Z,100873.25
2022-12-25T02:15:09.515Z,100873.25
2022-12-25T02:17:43.728Z,100811.84
2022-12-25T02:20:45.793Z,100878.59
2022-12-25T02:23:42.715Z,100875.19
2022-12-25T02:26:19.859Z,100790.31
2022-12-25T02:28:57.969Z,100882.28
2022-12-25T02:31:37.640Z,100873.25
2022-12-25T02:34:16.193Z,100867.88
2022-12-25T02:36:51.546Z,100783.28
2022-12-25T02:39:44.259Z,100786.66
2022-12-25T02:42:19.953Z,100866.19
2022-12-25T02:45:10.732Z,100865.34
2022-12-25T02:47:57.631Z,100880.44
2022-12-25T02:50:53.302Z,100880.56
2022-12-25T02:53:39.300Z,100873.50
2022-12-25T02:56:25.853Z,100875.19
2022-12-25T02:59:11.760Z,100864.63
2022-12-25T03:02:02.026Z,100798.56
2022-12-25T03:04:49.189Z,100869.84
2022-12-25T03:07:20.777Z,100870.97
2022-12-25T03:10:10.361Z,100868.16
2022-12-25T03:12:47.893Z,100868.16
2022-12-25T03:15:34.215Z,100862.78
2022-12-25T03:18:08.869Z,100772.38
2022-12-25T03:20:56.643Z,100867.16
2022-12-25T03:23:48.406Z,100868.16
2022-12-25T03:26:34.848Z,100868.16
2022-12-25T03:29:04.089Z,100867.28
2022-12-25T03:31:40.520Z,100851.19
2022-12-25T03:34:44.178Z,100864.47
2022-12-25T03:37:40.269Z,100860.09
2022-12-25T03:40:40.886Z,100859.13
2022-12-25T03:43:38.412Z,100852.06
2022-12-25T03:46:29.598Z,100848.38
2022-12-25T03:49:22.242Z,100764.53
2022-12-25T03:52:13.330Z,100842.19
2022-12-25T03:55:02.786Z,100846.69
2022-12-25T03:57:52.013Z,100852.06
2022-12-25T04:00:37.794Z,100858.28
2022-12-25T04:03:23.661Z,100856.44
2022-12-25T04:06:09.678Z,100841.34
2022-12-25T04:08:57.291Z,100835.97
2022-12-25T04:11:42.985Z,100843.03
2022-12-25T04:14:28.729Z,100835.97
2022-12-25T04:17:15.119Z,100831.34
2022-12-25T04:20:01.072Z,100826.94
2022-12-25T04:22:46.827Z,100820.16
2022-12-25T04:25:34.155Z,100821.72
2022-12-25T04:28:20.846Z,100816.47
2022-12-25T04:31:06.652Z,100805.75
2022-12-25T04:33:52.717Z,100811.13
2022-12-25T04:36:23.317Z,100778.91
2022-12-25T04:38:52.273Z,100812.84
2022-12-25T04:41:22.873Z,100812.84
2022-12-25T04:43:51.928Z,100801.84
2022-12-25T04:46:20.948Z,100798.16
2022-12-25T04:48:50.034Z,100799.84
2022-12-25T04:51:20.678Z,100721.25
2022-12-25T04:53:50.148Z,100798.16
2022-12-25T04:56:19.866Z,100780.66
2022-12-25T04:58:50.455Z,100775.03
2022-12-25T05:01:19.735Z,100779.25
2022-12-25T05:03:48.830Z,100778.41
2022-12-25T05:06:17.757Z,100781.06
2022-12-25T05:08:46.689Z,100776.72
2022-12-25T05:11:17.392Z,100767.66
2022-12-25T05:13:46.887Z,100770.34
2022-12-25T05:16:20.743Z,100770.34
2022-12-25T05:18:51.375Z,100777.44
2022-12-25T05:21:20.718Z,100779.25
2022-12-25T05:23:52.137Z,100774.75
2022-12-25T05:26:22.429Z,100780.13
2022-12-25T05:28:51.838Z,100774.75
2022-12-25T05:31:22.504Z,100769.38
2022-12-25T05:33:52.098Z,100764.03
2022-12-25T05:36:21.076Z,100769.38
2022-12-25T05:38:49.874Z,100753.28
2022-12-25T05:41:19.017Z,100758.66
2022-12-25T05:43:47.910Z,100756.94
2022-12-25T05:46:16.739Z,100752.44
2022-12-25T05:48:47.635Z,100748.91
2022-12-25T05:51:17.045Z,100754.13
2022-12-25T05:53:45.615Z,100746.22
2022-12-25T05:56:14.315Z,100755.97
2022-12-25T05:58:43.366Z,100751.56
2022-12-25T06:01:13.913Z,100751.56
2022-12-25T06:03:42.625Z,100737.22
2022-12-25T06:06:13.456Z,100726.75
2022-12-25T06:08:42.711Z,100730.97
2022-12-25T06:11:12.807Z,100733.81
2022-12-25T06:13:41.873Z,100742.84
2022-12-25T06:16:12.749Z,100744.53
2022-12-25T06:18:43.562Z,100657.78
2022-12-25T06:21:16.187Z,100746.94
2022-12-25T06:23:45.445Z,100743.25
2022-12-25T06:26:16.884Z,100678.16
2022-12-25T06:28:45.864Z,100754.97
2022-12-25T06:31:17.014Z,100756.66
2022-12-25T06:33:45.934Z,100753.03
2022-12-25T06:36:18.238Z,100760.06
2022-12-25T06:38:47.238Z,100758.38
2022-12-25T06:41:18.370Z,100760.06
2022-12-25T06:43:51.269Z,100754.72
2022-12-25T06:46:21.591Z,100761.75
2022-12-25T06:48:51.079Z,100762.03
2022-12-25T06:51:23.781Z,100754.97
2022-12-25T06:53:53.864Z,100661.91
2022-12-25T06:56:26.355Z,100743.97
2022-12-25T06:58:57.198Z,100744.97
2022-12-25T07:01:28.318Z,100736.94
2022-12-25T07:03:59.684Z,100735.22
2022-12-25T07:06:31.601Z,100734.25
2022-12-25T07:09:00.951Z,100740.31
2022-12-25T07:11:29.790Z,100581.03
2022-12-25T07:13:58.866Z,100749.19
2022-12-25T07:16:27.991Z,100745.66
2022-12-25T07:18:58.443Z,100749.34
2022-12-25T07:21:27.133Z,100751.03
2022-12-25T07:23:57.663Z,100749.34
2022-12-25T07:26:26.263Z,100754.97
2022-12-25T07:28:56.689Z,100737.31
2022-12-25T07:31:25.565Z,100760.06
2022-12-25T07:33:55.902Z,100751.31
2022-12-25T07:36:24.640Z,100751.88
2022-12-25T07:38:53.933Z,100760.78
2022-12-25T07:41:26.643Z,100755.69
2022-12-25T07:43:56.362Z,100759.06
2022-12-25T07:46:25.483Z,100761.75
2022-12-25T07:48:54.502Z,100764.44
2022-12-25T07:51:23.880Z,100763.59
2022-12-25T07:53:53.103Z,100768.13
2022-12-25T07:56:24.272Z,100756.38
2022-12-25T07:58:52.728Z,100750.34
2022-12-25T08:01:23.633Z,100758.38
2022-12-25T08:03:53.598Z,100749.34
2022-12-25T08:06:23.606Z,100749.34
2022-12-25T08:08:52.813Z,100757.38
2022-12-25T08:11:21.741Z,100758.38
2022-12-25T08:13:52.434Z,100762.63
2022-12-25T08:16:21.486Z,100757.25
2022-12-25T08:18:50.101Z,100667.16
2022-12-25T08:21:19.147Z,100744.69
2022-12-25T08:23:49.494Z,100735.50
2022-12-25T08:26:20.349Z,100740.03
2022-12-25T08:28:49.225Z,100746.25
2022-12-25T08:31:22.614Z,100744.56
2022-12-25T08:33:54.913Z,100749.06
2022-12-25T08:36:24.522Z,100664.34
2022-12-25T08:38:55.645Z,100742.00
2022-12-25T08:41:27.837Z,100741.03
2022-12-25T08:43:56.813Z,100736.66
2022-12-25T08:46:28.092Z,100728.88
2022-12-25T08:48:57.658Z,100737.47
2022-12-25T08:51:28.517Z,100740.31
2022-12-25T08:54:01.610Z,100736.66
2022-12-25T08:56:30.714Z,100736.66
2022-12-25T08:58:59.811Z,100738.63
2022-12-25T09:01:30.457Z,100740.31
2022-12-25T09:03:59.422Z,100749.34
2022-12-25T09:06:28.567Z,100742.00
2022-12-25T09:08:57.704Z,100757.38
2022-12-25T09:11:26.809Z,100750.06
2022-12-25T09:13:56.231Z,100744.69
2022-12-25T09:16:25.359Z,100741.44
2022-12-25T09:18:58.902Z,100748.34
2022-12-25T09:21:27.945Z,100653.28
2022-12-25T09:23:56.535Z,100748.34
2022-12-25T09:26:25.568Z,100753.72
2022-12-25T09:28:54.305Z,100747.38
2022-12-25T09:31:25.317Z,100664.34
2022-12-25T09:33:58.890Z,100746.53
2022-12-25T09:36:28.154Z,100742.00
2022-12-25T09:38:56.986Z,100686.75
2022-12-25T09:41:32.520Z,100763.47
2022-12-25T09:44:05.929Z,100757.09
2022-12-25T09:46:42.857Z,100760.34
2022-12-25T09:49:20.799Z,100761.75
2022-12-25T09:51:53.847Z,100693.94
2022-12-25T09:54:29.374Z,100747.38
2022-12-25T09:56:58.519Z,100747.38
2022-12-25T09:59:29.023Z,100746.53
2022-12-25T10:02:13.556Z,100736.66
2022-12-25T10:05:00.711Z,100746.53
2022-12-25T10:07:39.090Z,100748.34
2022-12-25T10:10:22.939Z,100761.75
2022-12-25T10:13:02.011Z,100761.75
2022-12-25T10:15:39.207Z,100679.66
2022-12-25T10:18:34.075Z,100754.72
2022-12-25T10:21:12.611Z,100670.75
2022-12-25T10:23:45.439Z,100743.97
2022-12-25T10:26:18.380Z,100738.63
2022-12-25T10:28:49.204Z,100739.47
2022-12-25T10:31:24.061Z,100670.75
2022-12-25T10:33:54.910Z,100745.66
2022-12-25T10:36:27.132Z,100740.31
2022-12-25T10:38:56.269Z,100746.53
2022-12-25T10:41:44.652Z,100731.28
2022-12-25T10:44:20.629Z,100730.44
2022-12-25T10:46:51.080Z,100732.97
2022-12-25T10:49:23.580Z,100719.69
2022-12-25T10:51:54.087Z,100720.56
2022-12-25T10:54:25.670Z,100718.16
2022-12-25T10:56:56.269Z,100723.25
2022-12-25T10:59:25.437Z,100715.19
2022-12-25T11:01:55.638Z,100649.13
2022-12-25T11:04:28.950Z,100712.53
2022-12-25T11:07:07.573Z,100709.84
2022-12-25T11:09:36.506Z,100704.47
2022-12-25T11:12:05.669Z,100699.09
2022-12-25T11:14:34.863Z,100686.94
2022-12-25T11:17:10.511Z,100693.75
2022-12-25T11:19:39.669Z,100701.78
2022-12-25T11:22:21.090Z,100692.03
2022-12-25T11:24:50.591Z,100612.66
2022-12-25T11:27:28.461Z,100685.69
2022-12-25T11:30:01.304Z,100677.66
2022-12-25T11:32:35.943Z,100580.34
2022-12-25T11:35:06.219Z,100670.56
2022-12-25T11:37:41.635Z,100671.44
2022-12-25T11:40:16.776Z,100661.56
2022-12-25T11:42:52.455Z,100672.28
2022-12-25T11:45:26.459Z,100659.84
2022-12-25T11:47:59.546Z,100575.91
2022-12-25T11:50:32.943Z,100647.44
2022-12-25T11:53:09.507Z,100642.78
2022-12-25T11:55:43.207Z,100660.72
2022-12-25T11:58:20.565Z,100668.63
2022-12-25T12:00:51.943Z,100667.22
2022-12-25T12:03:25.512Z,100645.47
2022-12-25T12:05:57.712Z,100643.75
2022-12-25T12:08:28.715Z,100653.81
2022-12-25T12:11:17.579Z,100654.47
2022-12-25T12:13:57.662Z,100644.63
2022-12-25T12:16:26.998Z,100649.13
2022-12-25T12:18:55.901Z,100658.16
2022-12-25T12:21:26.688Z,100654.78
2022-12-25T12:24:03.945Z,100650.13
2022-12-25T12:26:38.574Z,100655.47
2022-12-25T12:29:19.747Z,100653.66
2022-12-25T12:31:51.862Z,100642.06
2022-12-25T12:34:26.364Z,100641.06
2022-12-25T12:37:01.336Z,100651.13
2022-12-25T12:39:37.927Z,100651.13
2022-12-25T12:42:16.070Z,100654.47
2022-12-25T12:44:46.197Z,100647.44
2022-12-25T12:47:31.551Z,100645.47
2022-12-25T12:50:01.805Z,100629.38
2022-12-25T12:52:34.951Z,100550.94
2022-12-25T12:55:08.080Z,100631.06
2022-12-25T12:57:40.970Z,100634.75
2022-12-25T13:00:18.141Z,100546.44
2022-12-25T13:03:08.548Z,100622.03
2022-12-25T13:05:44.272Z,100614.97
2022-12-25T13:08:30.651Z,100554.59
2022-12-25T13:11:12.233Z,100614.13
2022-12-25T13:13:44.008Z,100562.66
2022-12-25T13:16:27.611Z,100607.78
2022-12-25T13:18:58.215Z,100602.56
2022-12-25T13:21:29.374Z,100511.13
2022-12-25T13:24:00.308Z,100599.88
2022-12-25T13:26:31.227Z,100605.25
2022-12-25T13:29:00.337Z,100590.84
2022-12-25T13:31:31.781Z,100589.84
2022-12-25T13:34:03.094Z,100494.53
2022-12-25T13:36:38.441Z,100574.75
2022-12-25T13:39:11.459Z,100584.47
2022-12-25T13:42:03.455Z,100575.75
2022-12-25T13:44:38.996Z,100577.44
2022-12-25T13:47:26.117Z,100568.38
2022-12-25T13:49:57.700Z,100566.72
2022-12-25T13:52:34.783Z,100428.53
2022-12-25T13:55:05.439Z,100508.91
2022-12-25T13:57:40.921Z,100574.03
2022-12-25T14:00:20.971Z,100566.72
2022-12-25T14:02:50.623Z,100573.75
2022-12-25T14:05:43.025Z,100573.75
2022-12-25T14:08:17.633Z,100579.13
2022-12-25T14:10:50.318Z,100543.00
2022-12-25T14:13:24.796Z,100563.03
2022-12-25T14:15:55.367Z,100492.84
2022-12-25T14:18:25.947Z,100488.03
2022-12-25T14:21:02.164Z,100569.38
2022-12-25T14:23:42.097Z,100565.03
2022-12-25T14:26:18.168Z,100552.59
2022-12-25T14:28:52.252Z,100565.03
2022-12-25T14:31:22.940Z,100467.97
2022-12-25T14:33:54.959Z,100552.59
2022-12-25T14:36:24.705Z,100550.91
2022-12-25T14:38:58.897Z,100545.53
2022-12-25T14:41:37.648Z,100551.63
2022-12-25T14:44:29.467Z,100554.97
2022-12-25T14:47:06.932Z,100546.94
2022-12-25T14:49:36.257Z,100549.63
2022-12-25T14:52:11.947Z,100536.19
2022-12-25T14:54:41.076Z,100546.09
2022-12-25T14:57:18.818Z,100546.94
2022-12-25T14:59:58.206Z,100552.28
2022-12-25T15:02:27.944Z,100546.94
2022-12-25T15:04:57.059Z,100541.56
2022-12-25T15:07:30.423Z,100539.88
2022-12-25T15:10:46.616Z,100546.94
2022-12-25T15:12:48.795Z,100540.75
2022-12-25T15:15:20.222Z,100533.53
2022-12-25T15:17:50.275Z,100534.53
2022-12-25T15:20:19.845Z,100530.84
2022-12-25T15:23:17.897Z,100535.09
2022-12-25T15:25:37.613Z,100522.78
2022-12-25T15:28:12.744Z,100521.81
2022-12-25T15:30:45.099Z,100517.28
2022-12-25T15:33:17.720Z,100518.16
2022-12-25T15:35:47.073Z,100517.56
2022-12-25T15:38:16.259Z,100511.94
2022-12-25T15:40:45.951Z,100505.75
2022-12-25T15:43:40.295Z,100480.59
2022-12-25T15:46:08.787Z,100498.66
2022-12-25T15:48:38.127Z,100475.81
2022-12-25T15:51:07.409Z,100486.25
2022-12-25T15:53:36.812Z,100490.63
2022-12-25T15:56:06.111Z,100496.97
2022-12-25T15:58:35.765Z,100495.97
2022-12-25T16:01:05.532Z,100498.66
2022-12-25T16:03:36.655Z,100476.69
2022-12-25T16:06:06.212Z,100497.69
2022-12-25T16:08:35.761Z,100495.00
2022-12-25T16:11:05.204Z,100497.69
2022-12-25T16:13:34.567Z,100495.84
2022-12-25T16:16:04.149Z,100495.00
2022-12-25T16:18:33.597Z,100491.31
2022-12-25T16:21:05.167Z,100495.00
2022-12-25T16:23:34.277Z,100493.00
2022-12-25T16:26:03.831Z,100482.28
2022-12-25T16:28:32.943Z,100481.31
2022-12-25T16:31:02.069Z,100487.66
2022-12-25T16:33:32.196Z,100476.91
2022-12-25T16:36:01.125Z,100481.47
2022-12-25T16:38:33.091Z,100471.56
2022-12-25T16:41:04.147Z,100465.38
2022-12-25T16:43:33.326Z,100468.19
2022-12-25T16:46:02.186Z,100469.88
2022-12-25T16:48:31.675Z,100456.03
2022-12-25T16:51:01.029Z,100458.28
2022-12-25T16:53:33.164Z,100460.81
2022-12-25T16:56:07.695Z,100454.50
2022-12-25T16:58:37.411Z,100450.09
2022-12-25T17:01:08.811Z,100369.31
2022-12-25T17:03:38.160Z,100447.56
2022-12-25T17:06:14.548Z,100435.16
2022-12-25T17:08:45.724Z,100437.69
2022-12-25T17:11:15.853Z,100428.94
2022-12-25T17:13:48.825Z,100436.84
2022-12-25T17:16:19.978Z,100426.09
2022-12-25T17:18:49.334Z,100429.66
2022-12-25T17:21:17.992Z,100423.44
2022-12-25T17:23:49.305Z,100423.44
2022-12-25T17:26:18.264Z,100414.56
2022-12-25T17:28:47.849Z,100333.47
2022-12-25T17:31:17.232Z,100342.50
2022-12-25T17:33:46.783Z,100427.81
2022-12-25T17:36:18.435Z,100343.19
2022-12-25T17:38:50.603Z,100428.66
2022-12-25T17:41:21.099Z,100428.66
2022-12-25T17:43:50.865Z,100431.31
2022-12-25T17:46:21.661Z,100420.75
2022-12-25T17:48:51.485Z,100426.97
2022-12-25T17:51:22.286Z,100398.38
2022-12-25T17:53:56.248Z,100431.31
2022-12-25T17:56:26.008Z,100436.69
2022-12-25T17:58:56.716Z,100439.38
2022-12-25T18:01:27.770Z,100424.56
2022-12-25T18:03:57.670Z,100424.28
2022-12-25T18:06:28.887Z,100423.44
2022-12-25T18:09:00.753Z,100417.91
2022-12-25T18:11:33.514Z,100421.31
2022-12-25T18:14:07.745Z,100426.66
2022-12-25T18:16:39.384Z,100426.66
2022-12-25T18:19:09.003Z,100427.66
2022-12-25T18:21:38.429Z,100425.81
2022-12-25T18:24:11.089Z,100430.34
2022-12-25T18:26:40.019Z,100430.34
2022-12-25T18:29:09.091Z,100430.34
2022-12-25T18:31:38.417Z,100430.34
2022-12-25T18:34:07.834Z,100425.00
2022-12-25T18:36:37.657Z,100426.66
2022-12-25T18:39:09.029Z,100426.66
2022-12-25T18:41:58.501Z,100423.00
2022-12-25T18:44:28.005Z,100423.00
2022-12-25T18:46:57.144Z,100415.94
2022-12-25T18:49:26.198Z,100410.59
2022-12-25T18:51:55.320Z,100418.63
2022-12-25T18:54:46.791Z,100415.94
2022-12-25T18:57:16.166Z,100411.59
2022-12-25T18:59:47.480Z,100408.91
2022-12-25T19:02:17.274Z,100326.72
2022-12-25T19:04:47.085Z,100414.25
2022-12-25T19:07:15.915Z,100425.00
2022-12-25T19:09:47.388Z,100421.47
2022-12-25T19:12:18.325Z,100421.31
2022-12-25T19:14:48.524Z,100414.25
2022-12-25T19:17:19.455Z,100415.94
2022-12-25T19:19:48.970Z,100408.91
2022-12-25T19:22:18.176Z,100330.50
2022-12-25T19:24:49.634Z,100396.47
2022-12-25T19:27:18.816Z,100398.19
2022-12-25T19:29:47.969Z,100337.66
2022-12-25T19:32:17.109Z,100397.16
2022-12-25T19:34:46.094Z,100401.53
2022-12-25T19:37:16.612Z,100406.91
2022-12-25T19:39:47.371Z,100415.94
2022-12-25T19:42:19.568Z,100417.63
2022-12-25T19:44:48.764Z,100417.63
2022-12-25T19:47:17.928Z,100418.47
2022-12-25T19:49:52.544Z,100412.25
2022-12-25T19:52:22.301Z,100406.91
2022-12-25T19:54:53.125Z,100317.94
2022-12-25T19:57:24.051Z,100386.59
2022-12-25T19:59:52.832Z,100380.06
2022-12-25T20:02:22.039Z,100375.72
2022-12-25T20:04:51.011Z,100384.63
2022-12-25T20:07:20.113Z,100378.41
2022-12-25T20:09:49.353Z,100383.75
2022-12-25T20:12:18.435Z,100384.63
2022-12-25T20:14:53.134Z,100400.72
2022-12-25T20:17:22.524Z,100397.16
2022-12-25T20:19:51.650Z,100396.16
2022-12-25T20:22:20.988Z,100383.75
2022-12-25T20:24:49.634Z,100388.13
2022-12-25T20:27:19.110Z,100389.13
2022-12-25T20:29:50.705Z,100388.28
2022-12-25T20:32:19.653Z,100380.06
2022-12-25T20:34:49.019Z,100381.94
2022-12-25T20:37:17.956Z,100373.88
2022-12-25T20:39:47.031Z,100374.72
2022-12-25T20:42:16.252Z,100373.03
2022-12-25T20:44:45.729Z,100367.97
2022-12-25T20:47:16.860Z,100371.34
2022-12-25T20:49:45.950Z,100370.34
2022-12-25T20:52:15.384Z,100368.53
2022-12-25T20:54:44.583Z,100356.94
2022-12-25T20:57:14.054Z,100360.47
2022-12-25T20:59:44.712Z,100269.72
2022-12-25T21:02:34.533Z,100353.25
2022-12-25T21:05:07.182Z,100361.31
2022-12-25T21:07:36.771Z,100359.63
2022-12-25T21:10:06.564Z,100293.97
2022-12-25T21:12:35.609Z,100356.94
2022-12-25T21:15:07.790Z,100347.91
2022-12-25T21:17:41.734Z,100358.63
2022-12-25T21:20:11.411Z,100352.44
2022-12-25T21:22:40.858Z,100359.63
2022-12-25T21:25:10.954Z,100340.84
2022-12-25T21:27:40.010Z,100335.50
2022-12-25T21:30:15.224Z,100348.91
2022-12-25T21:33:03.894Z,100335.50
2022-12-25T21:35:32.831Z,100332.81
2022-12-25T21:38:01.776Z,100326.44
2022-12-25T21:40:30.774Z,100324.75
2022-12-25T21:43:00.979Z,100337.16
2022-12-25T21:45:30.915Z,100231.09
2022-12-25T21:48:03.278Z,100330.13
2022-12-25T21:50:55.203Z,100331.81
2022-12-25T21:53:23.764Z,100326.75
2022-12-25T21:56:01.153Z,100323.09
2022-12-25T21:58:30.651Z,100323.09
2022-12-25T22:01:04.164Z,100319.41
2022-12-25T22:03:35.870Z,100316.00
2022-12-25T22:06:22.129Z,100314.03
2022-12-25T22:08:51.530Z,100307.00
2022-12-25T22:11:37.484Z,100299.41
2022-12-25T22:14:50.449Z,100302.44
2022-12-25T22:17:29.308Z,100301.63
2022-12-25T22:20:00.986Z,100305.28
2022-12-25T22:22:31.908Z,100307.00
2022-12-25T22:25:03.349Z,100301.63
2022-12-25T22:27:34.834Z,100305.28
2022-12-25T22:30:03.555Z,100301.63
2022-12-25T22:32:32.573Z,100308.66
2022-12-25T22:35:03.098Z,100298.81
2022-12-25T22:37:32.282Z,100297.94
2022-12-25T22:40:03.150Z,100298.94
2022-12-25T22:42:34.012Z,100220.63
2022-12-25T22:45:03.000Z,100281.84
2022-12-25T22:47:31.994Z,100290.91
2022-12-25T22:50:03.582Z,100289.91
2022-12-25T22:52:32.715Z,100290.59
2022-12-25T22:55:02.924Z,100288.91
2022-12-25T22:57:31.922Z,100288.91
2022-12-25T23:00:01.244Z,100288.91
2022-12-25T23:02:30.473Z,100283.53
2022-12-25T23:05:00.223Z,100279.88
2022-12-25T23:07:31.169Z,100277.34
2022-12-25T23:10:00.266Z,100267.44
2022-12-25T23:12:42.840Z,100271.84
2022-12-25T23:15:12.400Z,100274.50
2022-12-25T23:17:58.758Z,100269.16
2022-12-25T23:20:44.699Z,100266.63
2022-12-25T23:23:35.177Z,100271.84
2022-12-25T23:26:11.557Z,100266.63
2022-12-25T23:28:59.235Z,100264.75
2022-12-25T23:31:32.216Z,100256.72
2022-12-25T23:34:01.547Z,100262.06
2022-12-25T23:36:31.214Z,100109.44
2022-12-25T23:39:09.153Z,100188.47
2022-12-25T23:41:39.983Z,100261.41
2022-12-25T23:44:09.501Z,100262.06
2022-12-25T23:46:39.288Z,100251.34
2022-12-25T23:49:09.530Z,100170.13
2022-12-25T23:51:39.845Z,100247.69
2022-12-25T23:54:11.733Z,100245.00
2022-12-25T23:56:41.264Z,100159.69
2022-12-25T23:59:11.324Z,100230.91
